createdAt,value
2023-02-13T00:00:52.956Z,5.70
2023-02-13T00:03:20.263Z,5.70
2023-02-13T00:05:47.343Z,5.70
2023-02-13T00:08:14.391Z,5.70
2023-02-13T00:10:41.597Z,5.60
2023-02-13T00:13:08.919Z,5.60
2023-02-13T00:15:36.051Z,5.60
2023-02-13T00:18:03.418Z,5.60
2023-02-13T00:20:30.505Z,5.60
2023-02-13T00:22:59.900Z,5.50
2023-02-13T00:25:27.450Z,5.60
2023-02-13T00:27:54.717Z,5.50
2023-02-13T00:30:22.006Z,5.50
2023-02-13T00:32:49.064Z,5.50
2023-02-13T00:35:16.104Z,5.50
2023-02-13T00:37:43.157Z,5.50
2023-02-13T00:40:10.989Z,5.50
2023-02-13T00:42:38.063Z,5.50
2023-02-13T00:45:05.561Z,5.50
2023-02-13T00:47:32.818Z,5.50
2023-02-13T00:49:59.906Z,5.40
2023-02-13T00:52:27.043Z,5.40
2023-02-13T00:54:54.040Z,5.40
2023-02-13T00:57:21.082Z,5.40
2023-02-13T00:59:48.673Z,5.40
2023-02-13T01:02:18.083Z,5.40
2023-02-13T01:04:45.094Z,5.30
2023-02-13T01:07:12.152Z,5.30
2023-02-13T01:09:39.394Z,5.30
2023-02-13T01:12:06.723Z,5.30
2023-02-13T01:14:34.524Z,5.20
2023-02-13T01:17:01.728Z,5.20
2023-02-13T01:19:28.832Z,5.20
2023-02-13T01:21:55.987Z,5.10
2023-02-13T01:24:23.035Z,5.10
2023-02-13T01:26:50.249Z,5.10
2023-02-13T01:29:17.260Z,5.00
2023-02-13T01:31:44.463Z,5.00
2023-02-13T01:34:11.616Z,5.00
2023-02-13T01:36:39.205Z,4.90
2023-02-13T01:39:06.323Z,4.90
2023-02-13T01:41:33.486Z,4.90
2023-02-13T01:44:02.276Z,4.90
2023-02-13T01:46:42.967Z,4.90
2023-02-13T01:49:16.195Z,4.90
2023-02-13T01:51:44.241Z,4.80
2023-02-13T01:54:16.731Z,4.80
2023-02-13T01:56:51.819Z,4.80
2023-02-13T01:59:25.383Z,4.80
2023-02-13T02:01:53.339Z,4.70
2023-02-13T02:04:27.208Z,4.70
2023-02-13T02:07:16.073Z,4.70
2023-02-13T02:09:45.464Z,4.70
2023-02-13T02:12:27.930Z,4.60
2023-02-13T02:14:58.486Z,4.60
2023-02-13T02:17:28.085Z,4.60
2023-02-13T02:20:22.842Z,4.50
2023-02-13T02:23:08.382Z,4.50
2023-02-13T02:26:22.225Z,4.50
2023-02-13T02:29:13.450Z,4.50
2023-02-13T02:32:17.464Z,4.50
2023-02-13T02:35:24.254Z,4.50
2023-02-13T02:38:19.270Z,4.50
2023-02-13T02:41:43.327Z,4.50
2023-02-13T02:44:33.913Z,4.50
2023-02-13T02:47:37.466Z,4.50
2023-02-13T02:50:21.770Z,4.60
2023-02-13T02:53:30.270Z,4.60
2023-02-13T02:56:16.566Z,4.60
2023-02-13T02:59:06.399Z,4.60
2023-02-13T03:01:54.478Z,4.60
2023-02-13T03:04:53.007Z,4.60
2023-02-13T03:07:20.607Z,4.60
2023-02-13T03:10:12.937Z,4.60
2023-02-13T03:13:06.849Z,4.60
2023-02-13T03:15:57.092Z,4.60
2023-02-13T03:18:50.598Z,4.60
2023-02-13T03:22:18.514Z,4.60
2023-02-13T03:25:10.130Z,4.60
2023-02-13T03:28:17.357Z,4.60
2023-02-13T03:30:53.258Z,4.50
2023-02-13T03:33:54.460Z,4.50
2023-02-13T03:37:14.420Z,4.50
2023-02-13T03:40:02.770Z,4.50
2023-02-13T03:43:05.097Z,4.50
2023-02-13T03:45:53.340Z,4.50
2023-02-13T03:49:00.957Z,4.50
2023-02-13T03:51:48.703Z,4.50
2023-02-13T03:55:00.057Z,4.50
2023-02-13T03:57:48.104Z,4.50
2023-02-13T04:00:18.013Z,4.50
2023-02-13T04:03:15.146Z,4.50
2023-02-13T04:05:48.365Z,4.50
2023-02-13T04:08:16.019Z,4.50
2023-02-13T04:11:15.009Z,4.50
2023-02-13T04:14:08.380Z,4.50
2023-02-13T04:16:44.513Z,4.50
2023-02-13T04:19:12.317Z,4.50
2023-02-13T04:21:40.857Z,4.40
2023-02-13T04:24:09.139Z,4.40
2023-02-13T04:26:42.833Z,4.40
2023-02-13T04:29:10.493Z,4.40
2023-02-13T04:31:37.847Z,4.40
2023-02-13T04:34:05.021Z,4.30
2023-02-13T04:36:32.457Z,4.30
2023-02-13T04:38:59.655Z,4.30
2023-02-13T04:41:26.942Z,4.20
2023-02-13T04:43:54.137Z,4.20
2023-02-13T04:46:21.388Z,4.20
2023-02-13T04:48:48.511Z,4.20
2023-02-13T04:51:15.801Z,4.20
2023-02-13T04:53:42.882Z,4.20
2023-02-13T04:56:09.969Z,4.20
2023-02-13T04:58:37.264Z,4.10
2023-02-13T05:01:15.810Z,4.10
2023-02-13T05:03:43.280Z,4.10
2023-02-13T05:06:10.476Z,4.00
2023-02-13T05:08:37.852Z,4.00
2023-02-13T05:11:05.179Z,4.00
2023-02-13T05:13:32.625Z,4.00
2023-02-13T05:15:59.877Z,3.90
2023-02-13T05:18:27.125Z,3.90
2023-02-13T05:21:13.174Z,3.90
2023-02-13T05:23:40.342Z,3.90
2023-02-13T05:26:07.711Z,3.80
2023-02-13T05:28:53.505Z,3.80
2023-02-13T05:31:20.688Z,3.80
2023-02-13T05:33:47.802Z,3.80
2023-02-13T05:36:15.083Z,3.80
2023-02-13T05:38:42.206Z,3.80
2023-02-13T05:41:09.480Z,3.80
2023-02-13T05:43:36.591Z,3.90
2023-02-13T05:46:10.184Z,3.90
2023-02-13T05:48:37.783Z,3.90
2023-02-13T05:51:05.281Z,3.90
2023-02-13T05:53:35.368Z,3.90
2023-02-13T05:56:05.310Z,3.90
2023-02-13T05:58:33.491Z,3.90
2023-02-13T06:01:01.286Z,3.90
2023-02-13T06:03:31.132Z,3.80
2023-02-13T06:05:59.554Z,3.80
2023-02-13T06:08:26.896Z,3.80
2023-02-13T06:10:54.065Z,3.70
2023-02-13T06:13:21.224Z,3.70
2023-02-13T06:15:48.400Z,3.70
2023-02-13T06:18:18.587Z,3.70
2023-02-13T06:20:45.750Z,3.70
2023-02-13T06:23:12.925Z,3.70
2023-02-13T06:25:40.032Z,3.80
2023-02-13T06:28:07.819Z,3.80
2023-02-13T06:30:35.072Z,3.80
2023-02-13T06:33:02.186Z,3.80
2023-02-13T06:35:29.352Z,3.80
2023-02-13T06:37:56.561Z,3.80
2023-02-13T06:40:23.721Z,3.80
2023-02-13T06:42:50.967Z,3.80
2023-02-13T06:45:18.251Z,3.80
2023-02-13T06:47:47.688Z,3.80
2023-02-13T06:50:16.990Z,3.80
2023-02-13T06:52:52.206Z,3.80
2023-02-13T06:55:20.925Z,3.90
2023-02-13T06:57:48.509Z,3.90
2023-02-13T07:00:17.929Z,3.90
2023-02-13T07:02:46.968Z,4.00
2023-02-13T07:05:14.735Z,4.00
2023-02-13T07:07:43.023Z,4.00
2023-02-13T07:10:13.896Z,4.00
2023-02-13T07:12:41.385Z,4.10
2023-02-13T07:15:09.229Z,4.10
2023-02-13T07:17:36.322Z,4.10
2023-02-13T07:20:05.128Z,4.10
2023-02-13T07:22:35.544Z,4.10
2023-02-13T07:25:02.763Z,4.10
2023-02-13T07:27:29.963Z,4.10
2023-02-13T07:29:58.021Z,4.20
2023-02-13T07:32:26.048Z,4.20
2023-02-13T07:35:01.655Z,4.20
2023-02-13T07:37:31.424Z,4.20
2023-02-13T07:39:58.680Z,4.20
2023-02-13T07:42:25.935Z,4.20
2023-02-13T07:44:53.157Z,4.20
2023-02-13T07:47:22.644Z,4.20
2023-02-13T07:49:49.829Z,4.20
2023-02-13T07:52:16.982Z,4.30
2023-02-13T07:54:47.908Z,4.30
2023-02-13T07:57:16.786Z,4.30
2023-02-13T07:59:44.086Z,4.30
2023-02-13T08:02:14.474Z,4.20
2023-02-13T08:04:42.158Z,4.20
2023-02-13T08:07:09.297Z,4.20
2023-02-13T08:09:55.153Z,4.20
2023-02-13T08:12:22.611Z,4.10
2023-02-13T08:14:49.706Z,4.10
2023-02-13T08:17:16.797Z,4.10
2023-02-13T08:19:43.905Z,4.10
2023-02-13T08:22:11.043Z,4.10
2023-02-13T08:24:38.138Z,4.10
2023-02-13T08:27:05.338Z,4.10
2023-02-13T08:29:32.908Z,4.10
2023-02-13T08:32:00.077Z,4.10
2023-02-13T08:34:27.249Z,4.10
2023-02-13T08:36:54.348Z,4.10
2023-02-13T08:39:21.465Z,4.10
2023-02-13T08:41:48.548Z,4.10
2023-02-13T08:44:15.835Z,4.10
2023-02-13T08:46:42.912Z,4.20
2023-02-13T08:49:10.274Z,4.20
2023-02-13T08:51:37.439Z,4.20
2023-02-13T08:54:04.685Z,4.20
2023-02-13T08:56:31.791Z,4.30
2023-02-13T08:58:58.939Z,4.30
2023-02-13T09:01:26.523Z,4.30
2023-02-13T09:03:53.687Z,4.30
2023-02-13T09:06:20.821Z,4.40
2023-02-13T09:08:48.007Z,4.40
2023-02-13T09:11:15.119Z,4.50
2023-02-13T09:13:42.216Z,4.50
2023-02-13T09:16:11.139Z,4.50
2023-02-13T09:18:38.272Z,4.50
2023-02-13T09:21:10.154Z,4.60
2023-02-13T09:23:40.318Z,4.60
2023-02-13T09:26:14.322Z,4.70
2023-02-13T09:28:42.511Z,4.70
2023-02-13T09:31:17.899Z,4.70
2023-02-13T09:33:47.063Z,4.80
2023-02-13T09:36:24.605Z,4.80
2023-02-13T09:38:56.688Z,4.80
2023-02-13T09:41:38.295Z,4.90
2023-02-13T09:44:39.180Z,4.90
2023-02-13T09:47:15.512Z,4.90
2023-02-13T09:49:53.049Z,5.00
2023-02-13T09:52:20.644Z,5.00
2023-02-13T09:54:47.944Z,5.10
2023-02-13T09:57:35.114Z,5.10
2023-02-13T10:00:21.936Z,5.20
2023-02-13T10:02:58.387Z,5.30
2023-02-13T10:05:57.950Z,5.30
2023-02-13T10:08:54.950Z,5.40
2023-02-13T10:12:06.790Z,5.40
2023-02-13T10:15:34.358Z,5.50
2023-02-13T10:18:13.218Z,5.60
2023-02-13T10:20:45.573Z,5.60
2023-02-13T10:23:32.748Z,5.60
2023-02-13T10:26:09.474Z,5.70
2023-02-13T10:29:19.048Z,5.70
2023-02-13T10:31:50.030Z,5.70
2023-02-13T10:34:27.876Z,5.70
2023-02-13T10:36:55.926Z,5.70
2023-02-13T10:39:30.450Z,5.60
2023-02-13T10:42:00.604Z,5.70
2023-02-13T10:45:00.722Z,5.70
2023-02-13T10:48:07.283Z,5.70
2023-02-13T10:50:49.411Z,5.80
2023-02-13T10:53:39.148Z,5.80
2023-02-13T10:56:25.869Z,5.80
2023-02-13T10:59:10.754Z,5.90
2023-02-13T11:01:51.960Z,5.90
2023-02-13T11:04:20.565Z,6.00
2023-02-13T11:07:00.430Z,6.00
2023-02-13T11:09:34.496Z,6.10
2023-02-13T11:12:36.626Z,6.10
2023-02-13T11:15:07.967Z,6.20
2023-02-13T11:17:40.490Z,6.20
2023-02-13T11:20:29.310Z,6.20
2023-02-13T11:23:18.763Z,6.30
2023-02-13T11:26:23.088Z,6.30
2023-02-13T11:29:03.460Z,6.30
2023-02-13T11:31:36.928Z,6.30
2023-02-13T11:34:22.094Z,6.30
2023-02-13T11:37:19.697Z,6.40
2023-02-13T11:39:51.341Z,6.40
2023-02-13T11:42:35.231Z,6.50
2023-02-13T11:45:08.629Z,6.50
2023-02-13T11:47:40.538Z,6.50
2023-02-13T11:50:34.982Z,6.50
2023-02-13T11:53:20.131Z,6.60
2023-02-13T11:56:09.748Z,6.60
2023-02-13T11:58:38.281Z,6.70
2023-02-13T12:01:20.563Z,6.70
2023-02-13T12:04:18.906Z,6.80
2023-02-13T12:07:03.980Z,6.80
2023-02-13T12:09:32.307Z,6.80
2023-02-13T12:12:02.745Z,6.80
2023-02-13T12:14:38.804Z,6.80
2023-02-13T12:17:31.325Z,6.80
2023-02-13T12:19:59.746Z,6.80
2023-02-13T12:23:06.185Z,6.80
2023-02-13T12:25:57.005Z,6.90
2023-02-13T12:29:22.069Z,7.00
2023-02-13T12:32:19.654Z,7.00
2023-02-13T12:35:15.480Z,7.10
2023-02-13T12:37:59.405Z,7.10
2023-02-13T12:40:58.537Z,7.20
2023-02-13T12:44:04.529Z,7.30
2023-02-13T12:47:14.082Z,7.30
2023-02-13T12:50:09.312Z,7.40
2023-02-13T12:52:39.498Z,7.40
2023-02-13T12:55:53.181Z,7.40
2023-02-13T12:58:32.268Z,7.50
2023-02-13T13:01:17.841Z,7.50
2023-02-13T13:04:40.694Z,7.60
2023-02-13T13:07:23.999Z,7.70
2023-02-13T13:10:36.622Z,7.70
2023-02-13T13:13:15.731Z,7.80
2023-02-13T13:16:39.392Z,7.80
2023-02-13T13:19:35.430Z,7.90
2023-02-13T13:22:19.387Z,8.00
2023-02-13T13:25:17.524Z,8.10
2023-02-13T13:27:49.077Z,8.10
2023-02-13T13:30:30.747Z,8.10
2023-02-13T13:33:15.986Z,8.20
2023-02-13T13:35:53.239Z,8.20
2023-02-13T13:38:52.402Z,8.30
2023-02-13T13:42:13.808Z,8.30
2023-02-13T13:45:17.343Z,8.40
2023-02-13T13:48:59.615Z,8.40
2023-02-13T13:51:28.306Z,8.40
2023-02-13T13:54:01.781Z,8.50
2023-02-13T13:56:53.669Z,8.50
2023-02-13T13:59:51.907Z,8.50
2023-02-13T14:02:19.063Z,8.50
2023-02-13T14:05:19.175Z,8.50
2023-02-13T14:07:58.369Z,8.50
2023-02-13T14:10:28.366Z,8.50
2023-02-13T14:12:58.791Z,8.50
2023-02-13T14:15:42.443Z,8.60
2023-02-13T14:18:15.509Z,8.60
2023-02-13T14:20:54.188Z,8.60
2023-02-13T14:23:42.956Z,8.60
2023-02-13T14:26:16.333Z,8.60
2023-02-13T14:28:49.731Z,8.60
2023-02-13T14:31:17.126Z,8.60
2023-02-13T14:33:44.311Z,8.60
2023-02-13T14:36:27.370Z,8.60
2023-02-13T14:39:03.159Z,8.60
2023-02-13T14:41:51.228Z,8.70
2023-02-13T14:44:53.460Z,8.70
2023-02-13T14:47:30.110Z,8.70
2023-02-13T14:49:59.826Z,8.70
2023-02-13T14:52:35.428Z,8.70
2023-02-13T14:55:15.318Z,8.60
2023-02-13T14:57:59.917Z,8.60
2023-02-13T15:00:34.437Z,8.60
2023-02-13T15:03:42.890Z,8.60
2023-02-13T15:06:28.944Z,8.60
2023-02-13T15:09:00.344Z,8.60
2023-02-13T15:11:42.923Z,8.60
2023-02-13T15:14:28.484Z,8.60
2023-02-13T15:17:09.742Z,8.60
2023-02-13T15:19:43.266Z,8.60
2023-02-13T15:22:22.285Z,8.50
2023-02-13T15:24:50.914Z,8.50
2023-02-13T15:27:35.214Z,8.40
2023-02-13T15:30:19.428Z,8.30
2023-02-13T15:32:57.036Z,8.30
2023-02-13T15:35:31.347Z,8.20
2023-02-13T15:37:59.358Z,8.20
2023-02-13T15:40:33.519Z,8.10
2023-02-13T15:43:01.980Z,8.10
2023-02-13T15:45:31.666Z,8.10
2023-02-13T15:47:59.234Z,8.00
2023-02-13T15:50:34.309Z,8.00
2023-02-13T15:53:05.932Z,8.00
2023-02-13T15:55:36.628Z,7.90
2023-02-13T15:58:04.288Z,7.90
2023-02-13T16:00:37.945Z,7.80
2023-02-13T16:03:14.038Z,7.80
2023-02-13T16:05:41.725Z,7.70
2023-02-13T16:08:31.902Z,7.70
2023-02-13T16:11:37.610Z,7.60
2023-02-13T16:14:27.718Z,7.60
2023-02-13T16:17:03.632Z,7.50
2023-02-13T16:20:01.029Z,7.40
2023-02-13T16:22:50.474Z,7.40
2023-02-13T16:25:35.270Z,7.30
2023-02-13T16:28:24.456Z,7.30
2023-02-13T16:31:03.692Z,7.20
2023-02-13T16:33:41.507Z,7.20
2023-02-13T16:36:11.678Z,7.10
2023-02-13T16:38:46.336Z,7.10
2023-02-13T16:41:23.709Z,7.10
2023-02-13T16:43:56.541Z,7.00
2023-02-13T16:46:40.038Z,7.00
2023-02-13T16:49:09.875Z,7.00
2023-02-13T16:51:57.696Z,6.90
2023-02-13T16:54:48.063Z,6.90
2023-02-13T16:57:19.826Z,6.80
2023-02-13T16:59:57.228Z,6.80
2023-02-13T17:02:35.246Z,6.80
2023-02-13T17:05:21.308Z,6.70
2023-02-13T17:07:52.207Z,6.70
2023-02-13T17:10:36.048Z,6.60
2023-02-13T17:13:17.698Z,6.60
2023-02-13T17:15:47.639Z,6.60
2023-02-13T17:18:14.781Z,6.50
2023-02-13T17:20:44.343Z,6.50
2023-02-13T17:23:22.612Z,6.50
2023-02-13T17:25:52.131Z,6.50
2023-02-13T17:28:25.683Z,6.40
2023-02-13T17:30:56.766Z,6.40
2023-02-13T17:33:30.796Z,6.40
2023-02-13T17:35:58.091Z,6.40
2023-02-13T17:38:25.340Z,6.30
2023-02-13T17:40:52.513Z,6.30
2023-02-13T17:43:21.007Z,6.30
2023-02-13T17:45:50.135Z,6.30
2023-02-13T17:48:17.537Z,6.30
2023-02-13T17:50:45.153Z,6.20
2023-02-13T17:53:24.347Z,6.20
2023-02-13T17:55:51.697Z,6.20
2023-02-13T17:58:19.061Z,6.20
2023-02-13T18:00:46.695Z,6.20
2023-02-13T18:03:13.967Z,6.20
2023-02-13T18:05:41.589Z,6.20
2023-02-13T18:08:09.081Z,6.10
2023-02-13T18:10:40.840Z,6.10
2023-02-13T18:13:08.440Z,6.10
2023-02-13T18:15:45.147Z,6.10
2023-02-13T18:18:16.110Z,6.10
2023-02-13T18:20:45.160Z,6.10
2023-02-13T18:23:14.012Z,6.00
2023-02-13T18:25:41.776Z,6.00
2023-02-13T18:28:08.910Z,6.00
2023-02-13T18:30:36.552Z,6.00
2023-02-13T18:33:05.167Z,6.00
2023-02-13T18:35:33.450Z,6.00
2023-02-13T18:38:00.630Z,6.00
2023-02-13T18:40:27.654Z,6.00
2023-02-13T18:42:54.817Z,6.00
2023-02-13T18:45:21.922Z,6.00
2023-02-13T18:47:49.005Z,5.90
2023-02-13T18:50:16.354Z,5.90
2023-02-13T18:52:43.544Z,5.90
2023-02-13T18:55:10.599Z,5.90
2023-02-13T18:57:37.827Z,5.90
2023-02-13T19:00:06.146Z,5.90
2023-02-13T19:02:33.549Z,5.90
2023-02-13T19:05:01.277Z,5.90
2023-02-13T19:07:28.687Z,5.90
2023-02-13T19:09:55.967Z,5.90
2023-02-13T19:12:24.684Z,5.80
2023-02-13T19:14:51.823Z,5.80
2023-02-13T19:17:20.660Z,5.70
2023-02-13T19:19:48.943Z,5.60
2023-02-13T19:22:16.515Z,5.60
2023-02-13T19:24:44.429Z,5.50
2023-02-13T19:27:11.590Z,5.40
2023-02-13T19:29:38.691Z,5.40
2023-02-13T19:32:05.858Z,5.30
2023-02-13T19:34:32.947Z,5.30
2023-02-13T19:37:00.149Z,5.30
2023-02-13T19:39:27.237Z,5.30
2023-02-13T19:41:54.450Z,5.30
2023-02-13T19:44:21.544Z,5.30
2023-02-13T19:46:48.668Z,5.30
2023-02-13T19:49:16.696Z,5.40
2023-02-13T19:51:46.228Z,5.40
2023-02-13T19:54:13.506Z,5.40
2023-02-13T19:56:41.232Z,5.40
2023-02-13T19:59:12.318Z,5.50
2023-02-13T20:01:43.027Z,5.50
2023-02-13T20:04:11.498Z,5.50
2023-02-13T20:06:39.313Z,5.50
2023-02-13T20:09:13.729Z,5.50
2023-02-13T20:11:42.879Z,5.60
2023-02-13T20:14:15.025Z,5.60
2023-02-13T20:16:45.633Z,5.60
2023-02-13T20:19:13.995Z,5.60
2023-02-13T20:21:43.096Z,5.60
2023-02-13T20:24:11.929Z,5.70
2023-02-13T20:26:40.459Z,5.70
2023-02-13T20:29:08.957Z,5.70
2023-02-13T20:31:36.783Z,5.70
2023-02-13T20:34:06.327Z,5.70
2023-02-13T20:36:34.435Z,5.70
2023-02-13T20:39:04.603Z,5.70
2023-02-13T20:41:34.741Z,5.70
2023-02-13T20:44:10.330Z,5.70
2023-02-13T20:46:39.501Z,5.70
2023-02-13T20:49:06.932Z,5.70
2023-02-13T20:51:35.025Z,5.70
2023-02-13T20:54:02.788Z,5.70
2023-02-13T20:56:30.022Z,5.70
2023-02-13T20:59:00.195Z,5.70
2023-02-13T21:01:33.369Z,5.70
2023-02-13T21:04:01.379Z,5.70
2023-02-13T21:06:34.739Z,5.70
2023-02-13T21:09:05.000Z,5.70
2023-02-13T21:11:34.470Z,5.70
2023-02-13T21:14:02.811Z,5.70
2023-02-13T21:16:36.352Z,5.70
2023-02-13T21:19:12.766Z,5.70
2023-02-13T21:21:44.067Z,5.70
2023-02-13T21:24:16.870Z,5.60
2023-02-13T21:26:45.003Z,5.60
2023-02-13T21:29:12.727Z,5.60
2023-02-13T21:31:45.025Z,5.60
2023-02-13T21:34:14.292Z,5.60
2023-02-13T21:36:46.073Z,5.60
2023-02-13T21:39:13.758Z,5.60
2023-02-13T21:41:43.904Z,5.60
2023-02-13T21:44:16.656Z,5.60
2023-02-13T21:46:45.626Z,5.60
2023-02-13T21:49:18.435Z,5.60
2023-02-13T21:51:46.070Z,5.60
2023-02-13T21:54:13.646Z,5.50
2023-02-13T21:56:43.131Z,5.50
2023-02-13T21:59:17.360Z,5.50
2023-02-13T22:01:48.376Z,5.50
2023-02-13T22:04:17.105Z,5.50
2023-02-13T22:06:48.058Z,5.50
2023-02-13T22:09:17.276Z,5.50
2023-02-13T22:11:44.732Z,5.50
2023-02-13T22:14:17.141Z,5.50
2023-02-13T22:16:46.188Z,5.50
2023-02-13T22:19:15.935Z,5.50
2023-02-13T22:21:44.465Z,5.50
2023-02-13T22:24:12.114Z,5.50
2023-02-13T22:26:42.786Z,5.50
2023-02-13T22:29:13.311Z,5.50
2023-02-13T22:31:40.659Z,5.50
2023-02-13T22:34:12.574Z,5.50
2023-02-13T22:36:41.116Z,5.50
2023-02-13T22:39:11.222Z,5.50
2023-02-13T22:41:38.932Z,5.50
2023-02-13T22:44:06.133Z,5.50
2023-02-13T22:46:34.943Z,5.50
2023-02-13T22:49:02.480Z,5.50
2023-02-13T22:51:35.803Z,5.50
2023-02-13T22:54:03.982Z,5.50
2023-02-13T22:56:32.073Z,5.50
2023-02-13T22:59:00.473Z,5.50
2023-02-13T23:01:29.341Z,5.50
2023-02-13T23:03:57.855Z,5.40
2023-02-13T23:06:25.922Z,5.40
2023-02-13T23:08:54.076Z,5.40
2023-02-13T23:11:44.255Z,5.40
2023-02-13T23:14:12.205Z,5.40
2023-02-13T23:16:59.307Z,5.40
2023-02-13T23:19:27.845Z,5.40
2023-02-13T23:21:55.060Z,5.40
2023-02-13T23:24:22.625Z,5.30
2023-02-13T23:26:49.765Z,5.30
2023-02-13T23:29:17.236Z,5.30
2023-02-13T23:31:44.349Z,5.30
2023-02-13T23:34:11.546Z,5.30
2023-02-13T23:36:38.893Z,5.30
2023-02-13T23:39:06.006Z,5.30
2023-02-13T23:41:33.167Z,5.30
2023-02-13T23:44:00.186Z,5.30
2023-02-13T23:46:27.580Z,5.30
2023-02-13T23:48:54.688Z,5.30
2023-02-13T23:51:23.213Z,5.30
2023-02-13T23:53:53.220Z,5.40
2023-02-13T23:56:20.660Z,5.40
2023-02-13T23:58:47.688Z,5.40
